Time;durP1;ratioP1;P1;durP2;ratioP2;P2;SDS_P1;SDS_P2;PMS_P1;PMS_P2;Temp;Humidity;BMP_temperature;BMP_pressure;BME280_temperature;BME280_humidity;BME280_pressure;Samples;Min_cycle;Max_cycle;Signal;HPM_P1;HPM_P2
2022/10/07 00:00:12;;;;;;;;;2.67;2.67;;;;;;;;5096122;27;45418;-70
2022/10/07 00:02:37;;;;;;;;;2.67;2.00;;;;;;;;5096651;27;45385;-71
2022/10/07 00:05:02;;;;;;;;;1.67;1.00;;;;;;;;5078200;27;45503;-71
2022/10/07 00:07:27;;;;;;;;;2.00;2.00;;;;;;;;5096153;27;45530;-71
2022/10/07 00:09:52;;;;;;;;;2.00;2.00;;;;;;;;5096251;27;45409;-71
2022/10/07 00:12:18;;;;;;;;;1.00;1.00;;;;;;;;5096612;27;45330;-71
2022/10/07 00:14:43;;;;;;;;;3.00;2.00;;;;;;;;5096144;27;45293;-70
2022/10/07 00:17:08;;;;;;;;;3.67;1.67;;;;;;;;5096175;27;45329;-70
2022/10/07 00:19:34;;;;;;;;;1.00;1.00;;;;;;;;5078123;27;45302;-71
2022/10/07 00:21:59;;;;;;;;;2.00;2.00;;;;;;;;5096399;27;45287;-71
2022/10/07 00:24:24;;;;;;;;;1.67;1.67;;;;;;;;5096546;27;45464;-71
2022/10/07 00:26:49;;;;;;;;;1.67;1.33;;;;;;;;5095901;27;46062;-71
2022/10/07 00:29:14;;;;;;;;;3.00;1.00;;;;;;;;5095733;27;45543;-71
2022/10/07 00:31:40;;;;;;;;;1.00;1.00;;;;;;;;5096504;27;45477;-70
2022/10/07 00:34:06;;;;;;;;;3.00;1.67;;;;;;;;5096121;27;45300;-71
2022/10/07 00:36:33;;;;;;;;;3.00;2.00;;;;;;;;5096141;27;46088;-71
2022/10/07 00:39:00;;;;;;;;;2.00;2.00;;;;;;;;5096285;27;45364;-71
2022/10/07 00:41:27;;;;;;;;;1.00;1.00;;;;;;;;5096088;27;45450;-71
2022/10/07 00:43:52;;;;;;;;;3.67;1.00;;;;;;;;5095645;27;45370;-71
2022/10/07 00:46:22;;;;;;;;;1.67;1.67;;;;;;;;5093173;27;45488;-71
2022/10/07 00:48:48;;;;;;;;;3.00;1.33;;;;;;;;5085271;27;45306;-71
2022/10/07 00:51:16;;;;;;;;;2.00;2.00;;;;;;;;5095680;27;45339;-71
2022/10/07 00:53:45;;;;;;;;;3.00;1.00;;;;;;;;5096290;27;45333;-71
2022/10/07 00:56:10;;;;;;;;;2.00;2.00;;;;;;;;5095538;27;46555;-71
2022/10/07 00:58:38;;;;;;;;;3.00;1.00;;;;;;;;5095334;27;45477;-71
2022/10/07 01:01:03;;;;;;;;;3.00;3.00;;;;;;;;5095873;27;45314;-70
2022/10/07 01:03:28;;;;;;;;;1.00;1.00;;;;;;;;5095586;27;45409;-71
2022/10/07 01:05:53;;;;;;;;;3.00;1.67;;;;;;;;5095598;27;47381;-71
2022/10/07 01:08:20;;;;;;;;;2.67;2.33;;;;;;;;5095482;27;45327;-71
2022/10/07 01:11:12;;;;;;;;;1.67;1.00;;;;;;;;5095962;27;45362;-70
2022/10/07 01:13:54;;;;;;;;;2.33;1.67;;;;;;;;5077598;27;45349;-70
2022/10/07 01:16:29;;;;;;;;;4.00;1.67;;;;;;;;5095869;27;46327;-70
2022/10/07 01:19:03;;;;;;;;;2.00;2.00;;;;;;;;5095682;27;45325;-70
2022/10/07 01:21:28;;;;;;;;;1.00;1.00;;;;;;;;5077433;27;45241;-71
2022/10/07 01:24:06;;;;;;;;;2.33;2.00;;;;;;;;5095338;27;45314;-71
2022/10/07 01:26:35;;;;;;;;;2.00;2.00;;;;;;;;5095078;27;47282;-71
2022/10/07 01:29:07;;;;;;;;;2.00;1.67;;;;;;;;5095358;27;45499;-70
2022/10/07 01:31:39;;;;;;;;;2.00;2.00;;;;;;;;5095912;27;45204;-70
2022/10/07 01:34:06;;;;;;;;;1.67;1.67;;;;;;;;5095446;27;45588;-70
2022/10/07 01:36:35;;;;;;;;;3.00;2.00;;;;;;;;5095086;27;47233;-71
2022/10/07 01:39:03;;;;;;;;;2.00;1.00;;;;;;;;5095263;27;45362;-70
2022/10/07 01:41:30;;;;;;;;;1.00;1.00;;;;;;;;5095041;27;45422;-71
2022/10/07 01:43:56;;;;;;;;;0.00;0.00;;;;;;;;5095335;27;45457;-71
2022/10/07 01:46:23;;;;;;;;;1.00;1.00;;;;;;;;5095123;27;45975;-71
2022/10/07 01:48:50;;;;;;;;;1.67;1.00;;;;;;;;5095221;27;45347;-71
2022/10/07 01:51:16;;;;;;;;;3.00;3.00;;;;;;;;5094967;27;45459;-71
2022/10/07 01:53:44;;;;;;;;;4.67;2.00;;;;;;;;5095362;27;45475;-71
2022/10/07 01:56:28;;;;;;;;;4.00;1.00;;;;;;;;5094511;27;45378;-71
2022/10/07 01:59:12;;;;;;;;;3.00;1.00;;;;;;;;5083339;27;45623;-71
2022/10/07 02:01:37;;;;;;;;;2.00;2.00;;;;;;;;5095113;27;45428;-71
2022/10/07 02:04:41;;;;;;;;;3.33;1.33;;;;;;;;5095293;27;45448;-70
2022/10/07 02:07:25;;;;;;;;;1.33;1.33;;;;;;;;5031592;28;45661;-70
2022/10/07 02:09:57;;;;;;;;;1.67;1.67;;;;;;;;5031262;28;45352;-71
2022/10/07 02:12:28;;;;;;;;;2.67;1.00;;;;;;;;5035424;28;45338;-70
2022/10/07 02:14:57;;;;;;;;;1.00;1.00;;;;;;;;5035067;28;45444;-71
2022/10/07 02:17:25;;;;;;;;;2.00;1.00;;;;;;;;5035027;28;46030;-71
2022/10/07 02:19:52;;;;;;;;;1.33;1.33;;;;;;;;5035149;28;45420;-71
2022/10/07 02:22:19;;;;;;;;;1.67;1.67;;;;;;;;5035117;28;45401;-71
2022/10/07 02:24:46;;;;;;;;;2.00;2.00;;;;;;;;5034772;28;45557;-71
2022/10/07 02:27:14;;;;;;;;;1.00;1.00;;;;;;;;5017935;28;47788;-71
2022/10/07 02:29:41;;;;;;;;;2.00;2.00;;;;;;;;5035165;28;45493;-71
2022/10/07 02:32:09;;;;;;;;;2.00;2.00;;;;;;;;5034731;28;45443;-70
2022/10/07 02:34:35;;;;;;;;;1.67;1.67;;;;;;;;5034908;28;45472;-71
2022/10/07 02:37:03;;;;;;;;;1.00;1.00;;;;;;;;5043699;27;45305;-71
2022/10/07 02:39:29;;;;;;;;;4.00;1.00;;;;;;;;5097618;27;45468;-70
2022/10/07 02:42:09;;;;;;;;;1.00;1.00;;;;;;;;5097823;27;45334;-71
2022/10/07 02:44:46;;;;;;;;;2.33;1.00;;;;;;;;5097915;27;45529;-71
2022/10/07 02:47:13;;;;;;;;;1.00;1.00;;;;;;;;5097837;27;45405;-70
2022/10/07 02:49:39;;;;;;;;;2.00;2.00;;;;;;;;5097609;27;45307;-71
2022/10/07 02:52:06;;;;;;;;;1.67;1.67;;;;;;;;5097664;27;45429;-71
2022/10/07 02:54:48;;;;;;;;;2.00;2.00;;;;;;;;5097390;27;45437;-71
2022/10/07 02:57:16;;;;;;;;;2.00;2.00;;;;;;;;5097631;27;46170;-70
2022/10/07 02:59:43;;;;;;;;;2.00;2.00;;;;;;;;5097036;27;45691;-70
2022/10/07 03:02:15;;;;;;;;;2.33;2.33;;;;;;;;5097767;27;45461;-71
2022/10/07 03:04:41;;;;;;;;;2.33;1.33;;;;;;;;5097431;27;45489;-70
2022/10/07 03:07:06;;;;;;;;;2.00;2.00;;;;;;;;5097164;27;45841;-70
2022/10/07 03:09:31;;;;;;;;;3.67;2.00;;;;;;;;5096694;27;45444;-71
2022/10/07 03:11:57;;;;;;;;;1.33;1.33;;;;;;;;5097791;27;45341;-71
2022/10/07 03:14:25;;;;;;;;;2.00;2.00;;;;;;;;5097768;27;45252;-70
2022/10/07 03:16:50;;;;;;;;;2.67;1.67;;;;;;;;5097227;27;47177;-70
2022/10/07 03:19:16;;;;;;;;;3.00;1.67;;;;;;;;5097198;27;45353;-70
2022/10/07 03:21:41;;;;;;;;;2.00;2.00;;;;;;;;5096182;27;45355;-70
2022/10/07 03:24:06;;;;;;;;;1.67;1.67;;;;;;;;5097144;27;45395;-71
2022/10/07 03:26:32;;;;;;;;;3.33;1.67;;;;;;;;5078621;27;48054;-71
2022/10/07 03:28:58;;;;;;;;;1.00;1.00;;;;;;;;5097552;27;45433;-71
2022/10/07 03:31:24;;;;;;;;;2.00;1.00;;;;;;;;5097438;27;45751;-71
2022/10/07 03:33:49;;;;;;;;;1.67;1.33;;;;;;;;5096914;27;45378;-71
2022/10/07 03:36:14;;;;;;;;;4.00;2.33;;;;;;;;5096629;27;46227;-70
2022/10/07 03:38:39;;;;;;;;;2.00;2.00;;;;;;;;5096976;27;45356;-70
2022/10/07 03:41:05;;;;;;;;;1.00;1.00;;;;;;;;5097173;27;45616;-71
2022/10/07 03:43:30;;;;;;;;;2.00;2.00;;;;;;;;5097118;27;45410;-71
2022/10/07 03:45:57;;;;;;;;;3.00;1.00;;;;;;;;5096945;27;46308;-70
2022/10/07 03:48:22;;;;;;;;;2.00;2.00;;;;;;;;5096949;27;45351;-70
2022/10/07 03:50:48;;;;;;;;;2.00;1.67;;;;;;;;5096574;27;45376;-71
2022/10/07 03:53:14;;;;;;;;;3.00;3.00;;;;;;;;5096850;27;45473;-71
2022/10/07 03:55:39;;;;;;;;;1.33;1.33;;;;;;;;5096982;27;45439;-70
2022/10/07 03:58:04;;;;;;;;;1.00;1.00;;;;;;;;5096760;27;45494;-71
2022/10/07 04:00:29;;;;;;;;;2.00;2.00;;;;;;;;5097057;27;45359;-70
2022/10/07 04:02:54;;;;;;;;;1.00;1.00;;;;;;;;5112548;27;45415;-70
2022/10/07 04:05:20;;;;;;;;;0.00;0.00;;;;;;;;5095988;27;46953;-70
2022/10/07 04:07:46;;;;;;;;;2.00;1.00;;;;;;;;5096337;27;45397;-71
2022/10/07 04:10:13;;;;;;;;;0.00;0.00;;;;;;;;5096719;27;45283;-70
2022/10/07 04:12:38;;;;;;;;;2.00;2.00;;;;;;;;5096468;27;45473;-71
2022/10/07 04:15:03;;;;;;;;;1.67;1.67;;;;;;;;5096028;27;46066;-70
2022/10/07 04:17:29;;;;;;;;;3.00;1.00;;;;;;;;5096531;27;45358;-70
2022/10/07 04:19:54;;;;;;;;;1.33;1.33;;;;;;;;5096229;27;45372;-71
2022/10/07 04:22:19;;;;;;;;;1.00;1.00;;;;;;;;5096360;27;45322;-70
2022/10/07 04:25:32;;;;;;;;;4.67;1.00;;;;;;;;5096234;27;46281;-71
2022/10/07 04:27:30;;;;;;;;;1.00;1.00;;;;;;;;5096033;27;45406;-71
2022/10/07 04:29:55;;;;;;;;;1.00;1.00;;;;;;;;5096388;27;45319;-71
2022/10/07 04:32:21;;;;;;;;;1.00;1.00;;;;;;;;5096161;27;45480;-71
2022/10/07 04:34:50;;;;;;;;;4.67;3.00;;;;;;;;5095317;27;46554;-71
2022/10/07 04:37:15;;;;;;;;;0.00;0.00;;;;;;;;5095915;27;45300;-71
2022/10/07 04:39:40;;;;;;;;;2.33;1.67;;;;;;;;5096289;27;45330;-70
2022/10/07 04:42:06;;;;;;;;;2.33;2.00;;;;;;;;5095978;27;45456;-71
2022/10/07 04:44:31;;;;;;;;;3.33;2.00;;;;;;;;5095839;27;45378;-71
2022/10/07 04:46:56;;;;;;;;;3.00;2.00;;;;;;;;5096152;27;45481;-70
2022/10/07 04:49:21;;;;;;;;;1.00;1.00;;;;;;;;5095824;27;45402;-71
2022/10/07 04:51:46;;;;;;;;;1.00;1.00;;;;;;;;5095851;27;45446;-70
2022/10/07 04:54:12;;;;;;;;;1.33;1.00;;;;;;;;5095712;27;47002;-71
2022/10/07 04:56:37;;;;;;;;;1.67;1.33;;;;;;;;5095633;27;45434;-71
2022/10/07 04:59:02;;;;;;;;;1.00;1.00;;;;;;;;5096038;27;45381;-70
2022/10/07 05:01:28;;;;;;;;;2.33;2.33;;;;;;;;5095820;27;45311;-71
2022/10/07 05:03:53;;;;;;;;;2.00;2.00;;;;;;;;5095318;27;45412;-70
2022/10/07 05:06:18;;;;;;;;;2.33;1.67;;;;;;;;5096027;27;45371;-71
2022/10/07 05:08:44;;;;;;;;;5.00;2.00;;;;;;;;5095472;27;45724;-70
2022/10/07 05:11:09;;;;;;;;;2.00;2.00;;;;;;;;5095839;27;45421;-70
2022/10/07 05:13:37;;;;;;;;;3.33;2.00;;;;;;;;5077002;27;47388;-70
2022/10/07 05:16:02;;;;;;;;;1.00;1.00;;;;;;;;5095619;27;45543;-70
2022/10/07 05:18:28;;;;;;;;;2.00;1.00;;;;;;;;5095256;27;45401;-71
2022/10/07 05:20:53;;;;;;;;;2.00;2.00;;;;;;;;5095915;27;45385;-71
2022/10/07 05:23:20;;;;;;;;;1.33;1.00;;;;;;;;5095500;27;45348;-70
2022/10/07 05:25:45;;;;;;;;;2.33;2.33;;;;;;;;5095326;27;45245;-70
2022/10/07 05:28:11;;;;;;;;;3.00;3.00;;;;;;;;5095445;27;45309;-71
2022/10/07 05:30:37;;;;;;;;;1.00;1.00;;;;;;;;5095427;27;45398;-70
2022/10/07 05:33:02;;;;;;;;;1.00;1.00;;;;;;;;5095072;27;45798;-70
2022/10/07 05:35:27;;;;;;;;;1.67;1.33;;;;;;;;5076939;27;45585;-70
2022/10/07 05:37:53;;;;;;;;;1.67;1.33;;;;;;;;5095485;27;45263;-70
2022/10/07 05:40:18;;;;;;;;;2.00;2.00;;;;;;;;5095526;27;45213;-70
2022/10/07 05:42:44;;;;;;;;;1.00;1.00;;;;;;;;5095189;27;46079;-69
2022/10/07 05:45:09;;;;;;;;;2.00;1.00;;;;;;;;5095534;27;45344;-70
2022/10/07 05:47:34;;;;;;;;;3.00;2.33;;;;;;;;5098761;27;45378;-71
2022/10/07 05:49:59;;;;;;;;;1.00;1.00;;;;;;;;5098601;27;45351;-70
2022/10/07 05:52:25;;;;;;;;;2.00;2.00;;;;;;;;5098638;27;47162;-70
2022/10/07 05:54:50;;;;;;;;;3.00;3.00;;;;;;;;5098700;27;45519;-70
2022/10/07 05:57:16;;;;;;;;;3.00;2.00;;;;;;;;5098908;27;45322;-71
2022/10/07 05:59:42;;;;;;;;;1.33;1.33;;;;;;;;5098822;27;45289;-70
2022/10/07 06:02:12;;;;;;;;;4.00;2.33;;;;;;;;5097970;27;46400;-70
2022/10/07 06:04:37;;;;;;;;;1.67;1.00;;;;;;;;5098503;27;45331;-71
2022/10/07 06:07:02;;;;;;;;;2.33;2.00;;;;;;;;5098311;27;45474;-70
2022/10/07 06:14:56;;;;;;;;;1.00;1.00;;;;;;;;5098215;27;45665;-70
2022/10/07 06:17:21;;;;;;;;;2.33;2.00;;;;;;;;5079562;27;45336;-71
2022/10/07 06:19:46;;;;;;;;;2.00;2.00;;;;;;;;5098587;27;45260;-70
2022/10/07 06:22:11;;;;;;;;;2.00;2.00;;;;;;;;5098176;27;46312;-70
2022/10/07 06:24:36;;;;;;;;;1.33;1.33;;;;;;;;5094181;27;45385;-75
2022/10/07 06:27:02;;;;;;;;;2.00;1.00;;;;;;;;5094266;27;45365;-72
2022/10/07 06:29:27;;;;;;;;;2.00;2.00;;;;;;;;5097829;27;45308;-73
2022/10/07 06:31:52;;;;;;;;;1.00;1.00;;;;;;;;5096635;27;46097;-72
2022/10/07 06:34:18;;;;;;;;;2.00;2.00;;;;;;;;5097704;27;45849;-71
2022/10/07 06:36:43;;;;;;;;;2.00;1.67;;;;;;;;5097870;27;45530;-72
2022/10/07 06:39:08;;;;;;;;;0.33;0.33;;;;;;;;5097955;27;45342;-75
2022/10/07 06:41:33;;;;;;;;;2.33;2.33;;;;;;;;5097929;27;46998;-71
2022/10/07 06:43:59;;;;;;;;;3.33;1.67;;;;;;;;5098048;27;45522;-69
2022/10/07 06:46:25;;;;;;;;;2.00;2.00;;;;;;;;5092506;27;45531;-70
2022/10/07 06:48:50;;;;;;;;;1.00;1.00;;;;;;;;5096139;27;45460;-69
2022/10/07 06:51:19;;;;;;;;;2.33;2.00;;;;;;;;5096747;27;46360;-70
2022/10/07 06:53:44;;;;;;;;;3.67;1.67;;;;;;;;5096447;27;45271;-69
2022/10/07 06:56:10;;;;;;;;;1.33;1.33;;;;;;;;5096552;27;45410;-69
2022/10/07 06:58:35;;;;;;;;;2.33;1.00;;;;;;;;5094930;27;45397;-71
2022/10/07 07:01:01;;;;;;;;;2.00;2.00;;;;;;;;5096858;27;46128;-70
2022/10/07 07:03:27;;;;;;;;;2.67;2.00;;;;;;;;5096997;27;45268;-71
2022/10/07 07:05:53;;;;;;;;;3.33;2.00;;;;;;;;5079121;27;45336;-69
2022/10/07 07:08:19;;;;;;;;;4.00;3.00;;;;;;;;5095016;27;45455;-70
2022/10/07 07:10:45;;;;;;;;;2.00;2.00;;;;;;;;5096501;27;46904;-70
2022/10/07 07:13:11;;;;;;;;;4.00;3.00;;;;;;;;5096236;27;45456;-70
2022/10/07 07:15:36;;;;;;;;;2.67;2.00;;;;;;;;5096611;27;45418;-70
2022/10/07 07:18:03;;;;;;;;;2.00;2.00;;;;;;;;5096792;27;45504;-70
2022/10/07 07:20:34;;;;;;;;;1.67;1.67;;;;;;;;5097080;27;46090;-71
2022/10/07 07:23:03;;;;;;;;;2.00;2.00;;;;;;;;5096859;27;45465;-70
2022/10/07 07:25:28;;;;;;;;;5.33;3.67;;;;;;;;5097260;27;45303;-71
2022/10/07 07:27:54;;;;;;;;;3.00;2.00;;;;;;;;5096591;27;45453;-71
2022/10/07 07:30:22;;;;;;;;;7.00;2.33;;;;;;;;5096787;27;46167;-70
2022/10/07 07:32:47;;;;;;;;;3.00;2.00;;;;;;;;5096148;27;45458;-70
2022/10/07 07:35:12;;;;;;;;;1.33;1.33;;;;;;;;5096754;27;45333;-70
2022/10/07 07:37:38;;;;;;;;;5.00;2.33;;;;;;;;5096837;27;45540;-71
2022/10/07 07:40:03;;;;;;;;;4.33;3.00;;;;;;;;5096789;27;46026;-71
2022/10/07 07:42:28;;;;;;;;;4.33;3.67;;;;;;;;5096516;27;45353;-70
2022/10/07 07:44:54;;;;;;;;;2.67;2.67;;;;;;;;5096642;27;45471;-71
2022/10/07 07:47:19;;;;;;;;;2.00;2.00;;;;;;;;5096757;27;45468;-71
2022/10/07 07:49:44;;;;;;;;;4.33;3.00;;;;;;;;5096245;27;46282;-71
2022/10/07 07:52:10;;;;;;;;;2.67;2.67;;;;;;;;5087240;27;45349;-70
2022/10/07 07:54:36;;;;;;;;;4.00;3.00;;;;;;;;5091111;27;45279;-71
2022/10/07 07:57:02;;;;;;;;;2.00;2.00;;;;;;;;5096734;27;45413;-70
2022/10/07 07:59:27;;;;;;;;;2.00;2.00;;;;;;;;5096063;27;46038;-71
2022/10/07 08:01:52;;;;;;;;;2.33;2.33;;;;;;;;5095922;27;45338;-71
2022/10/07 08:04:17;;;;;;;;;2.00;2.00;;;;;;;;5096581;27;45342;-71
2022/10/07 08:06:43;;;;;;;;;3.33;2.00;;;;;;;;5096431;27;45306;-70
2022/10/07 08:09:08;;;;;;;;;4.33;3.33;;;;;;;;5095005;27;46304;-71
2022/10/07 08:11:33;;;;;;;;;3.00;3.00;;;;;;;;5096330;27;45342;-71
2022/10/07 08:13:59;;;;;;;;;3.33;3.33;;;;;;;;5095613;27;45291;-70
2022/10/07 08:16:25;;;;;;;;;4.67;3.00;;;;;;;;5096489;27;45331;-70
2022/10/07 08:18:51;;;;;;;;;3.67;3.67;;;;;;;;5096453;27;46032;-70
2022/10/07 08:21:18;;;;;;;;;3.33;3.00;;;;;;;;5096457;27;45358;-70
2022/10/07 08:23:44;;;;;;;;;2.33;2.33;;;;;;;;5096500;27;45488;-70
2022/10/07 08:26:09;;;;;;;;;2.67;2.33;;;;;;;;5096301;27;45473;-70
2022/10/07 08:28:35;;;;;;;;;2.00;2.00;;;;;;;;5095986;27;46264;-71
2022/10/07 08:31:02;;;;;;;;;2.00;2.00;;;;;;;;5096570;27;45307;-71
2022/10/07 08:33:30;;;;;;;;;4.00;3.67;;;;;;;;5095772;27;45374;-71
2022/10/07 08:35:59;;;;;;;;;6.33;4.33;;;;;;;;5095934;27;45247;-69
2022/10/07 08:38:24;;;;;;;;;3.00;3.00;;;;;;;;5096129;27;45472;-70
2022/10/07 08:40:51;;;;;;;;;3.00;3.00;;;;;;;;5095677;27;45356;-70
2022/10/07 08:43:18;;;;;;;;;2.00;2.00;;;;;;;;5095996;27;45334;-71
2022/10/07 08:45:44;;;;;;;;;6.67;4.67;;;;;;;;5096199;27;45839;-70
2022/10/07 08:48:20;;;;;;;;;2.00;2.00;;;;;;;;5095685;27;47393;-70
2022/10/07 08:50:54;;;;;;;;;4.00;4.00;;;;;;;;5095891;27;45233;-70
2022/10/07 08:53:26;;;;;;;;;2.33;2.33;;;;;;;;5095612;27;45406;-70
2022/10/07 08:55:54;;;;;;;;;2.00;2.00;;;;;;;;5095597;27;45430;-71
2022/10/07 08:58:39;;;;;;;;;3.67;2.33;;;;;;;;5095734;27;45302;-71
2022/10/07 09:01:07;;;;;;;;;3.67;3.67;;;;;;;;5095538;27;45322;-71
2022/10/07 09:03:40;;;;;;;;;3.00;3.00;;;;;;;;5095452;27;45359;-70
2022/10/07 09:06:09;;;;;;;;;2.00;2.00;;;;;;;;5095582;27;45438;-70
2022/10/07 09:08:39;;;;;;;;;3.00;2.67;;;;;;;;5094417;27;46180;-70
2022/10/07 09:11:14;;;;;;;;;3.00;3.00;;;;;;;;5094825;27;45318;-70
2022/10/07 09:13:41;;;;;;;;;2.00;2.00;;;;;;;;5095468;27;45353;-71
2022/10/07 09:16:12;;;;;;;;;2.67;2.67;;;;;;;;5095552;27;45413;-70
2022/10/07 09:18:40;;;;;;;;;3.00;3.00;;;;;;;;5095329;27;46314;-70
2022/10/07 09:21:25;;;;;;;;;3.67;2.67;;;;;;;;5098976;27;45354;-71
2022/10/07 09:23:54;;;;;;;;;3.00;3.00;;;;;;;;5098320;27;45290;-70
2022/10/07 09:26:19;;;;;;;;;5.00;5.00;;;;;;;;5098818;27;45493;-70
2022/10/07 09:28:44;;;;;;;;;3.00;3.00;;;;;;;;5098703;27;45441;-70
2022/10/07 09:31:13;;;;;;;;;5.67;3.67;;;;;;;;5099013;27;45309;-71
2022/10/07 09:33:42;;;;;;;;;5.33;3.00;;;;;;;;5098703;27;45343;-71
2022/10/07 09:36:12;;;;;;;;;2.67;2.67;;;;;;;;5098777;27;45318;-70
2022/10/07 09:38:41;;;;;;;;;2.33;2.33;;;;;;;;5098856;27;45405;-70
2022/10/07 09:41:16;;;;;;;;;3.00;3.00;;;;;;;;5098562;27;45367;-70
2022/10/07 09:43:53;;;;;;;;;3.00;3.00;;;;;;;;5099108;27;45410;-70
2022/10/07 09:46:37;;;;;;;;;5.00;3.67;;;;;;;;5098495;27;45711;-70
2022/10/07 09:49:04;;;;;;;;;3.00;3.00;;;;;;;;5098569;27;46916;-70
2022/10/07 09:51:31;;;;;;;;;4.00;4.00;;;;;;;;5098373;27;45410;-71
2022/10/07 09:54:04;;;;;;;;;3.00;2.33;;;;;;;;5098146;27;45384;-70
2022/10/07 09:56:40;;;;;;;;;2.33;2.33;;;;;;;;5098518;27;45509;-70
2022/10/07 09:59:22;;;;;;;;;3.00;3.00;;;;;;;;5098244;27;45354;-70
2022/10/07 10:01:57;;;;;;;;;5.33;3.00;;;;;;;;5098330;27;45386;-71
2022/10/07 10:04:27;;;;;;;;;4.00;3.33;;;;;;;;5098699;27;45635;-70
2022/10/07 10:06:54;;;;;;;;;2.00;2.00;;;;;;;;5098328;27;45460;-70
2022/10/07 10:09:21;;;;;;;;;3.33;3.00;;;;;;;;5096853;27;46366;-70
2022/10/07 10:11:59;;;;;;;;;3.00;3.00;;;;;;;;5098087;27;45304;-70
2022/10/07 10:14:27;;;;;;;;;3.33;3.33;;;;;;;;5098409;27;45435;-70
2022/10/07 10:16:52;;;;;;;;;3.67;3.67;;;;;;;;5097741;27;45587;-70
2022/10/07 10:19:24;;;;;;;;;2.67;2.67;;;;;;;;5098356;27;46266;-71
2022/10/07 10:21:55;;;;;;;;;3.00;3.00;;;;;;;;5097822;27;45453;-71
2022/10/07 10:26:24;;;;;;;;;2.00;2.00;;;;;;;;5098036;27;45301;-70
2022/10/07 10:27:11;;;;;;;;;2.00;2.00;;;;;;;;5098144;27;45494;-71
2022/10/07 10:29:40;;;;;;;;;4.33;3.00;;;;;;;;5098011;27;45425;-70
2022/10/07 10:32:24;;;;;;;;;4.00;4.00;;;;;;;;5096608;27;45919;-70
2022/10/07 10:34:58;;;;;;;;;2.00;2.00;;;;;;;;5097935;27;45341;-70
2022/10/07 10:37:32;;;;;;;;;3.67;3.33;;;;;;;;5097351;27;45755;-70
2022/10/07 10:39:57;;;;;;;;;4.00;2.00;;;;;;;;5097601;27;46373;-70
2022/10/07 10:42:30;;;;;;;;;3.67;3.67;;;;;;;;5097734;27;45341;-70
2022/10/07 10:45:02;;;;;;;;;2.00;2.00;;;;;;;;5098066;27;45399;-70
2022/10/07 10:47:38;;;;;;;;;4.00;4.00;;;;;;;;5098027;27;45498;-70
2022/10/07 10:50:33;;;;;;;;;4.00;3.00;;;;;;;;5097488;27;45302;-70
2022/10/07 10:53:13;;;;;;;;;2.00;2.00;;;;;;;;5083663;27;45334;-70
2022/10/07 10:55:50;;;;;;;;;4.67;3.00;;;;;;;;5097522;27;45461;-70
2022/10/07 10:58:29;;;;;;;;;4.00;4.00;;;;;;;;5097827;27;45465;-70
2022/10/07 11:01:01;;;;;;;;;2.67;2.33;;;;;;;;5097501;27;46407;-70
2022/10/07 11:03:38;;;;;;;;;2.67;2.67;;;;;;;;5097083;27;45345;-70
2022/10/07 11:06:06;;;;;;;;;3.00;2.67;;;;;;;;5096884;27;45452;-71
2022/10/07 11:08:33;;;;;;;;;3.67;3.33;;;;;;;;5097173;27;45360;-70
2022/10/07 11:11:07;;;;;;;;;5.00;4.67;;;;;;;;5097176;27;45559;-70
2022/10/07 11:13:32;;;;;;;;;4.00;4.00;;;;;;;;5096616;27;45265;-69
2022/10/07 11:16:03;;;;;;;;;4.00;4.00;;;;;;;;5097268;27;45259;-69
2022/10/07 11:18:35;;;;;;;;;2.33;2.33;;;;;;;;5097494;27;45449;-72
2022/10/07 11:21:02;;;;;;;;;6.67;3.33;;;;;;;;5112582;27;46501;-70
2022/10/07 11:23:40;;;;;;;;;2.33;2.33;;;;;;;;5096720;27;45534;-70
2022/10/07 11:26:25;;;;;;;;;6.00;5.00;;;;;;;;5096686;27;45416;-70
2022/10/07 11:28:52;;;;;;;;;5.00;5.00;;;;;;;;5094700;27;45598;-70
2022/10/07 11:31:25;;;;;;;;;2.67;2.67;;;;;;;;5096698;27;47203;-70
2022/10/07 11:34:09;;;;;;;;;5.33;3.00;;;;;;;;5095368;27;45367;-70
2022/10/07 11:36:40;;;;;;;;;5.00;4.00;;;;;;;;5095961;27;45351;-70
2022/10/07 11:39:07;;;;;;;;;3.33;3.33;;;;;;;;5096910;27;45439;-70
2022/10/07 11:41:34;;;;;;;;;3.67;3.00;;;;;;;;5096056;27;45369;-70
2022/10/07 11:44:02;;;;;;;;;3.00;2.00;;;;;;;;5095218;27;45421;-70
2022/10/07 11:46:27;;;;;;;;;3.00;3.00;;;;;;;;5096285;27;45681;-70
2022/10/07 11:48:52;;;;;;;;;3.67;2.33;;;;;;;;5096789;27;45453;-70
2022/10/07 11:51:23;;;;;;;;;3.33;3.33;;;;;;;;5095779;27;45409;-70
2022/10/07 11:53:50;;;;;;;;;3.00;1.33;;;;;;;;5096212;27;45304;-71
2022/10/07 11:56:19;;;;;;;;;4.67;2.00;;;;;;;;5096487;27;45459;-70
2022/10/07 11:58:45;;;;;;;;;2.00;2.00;;;;;;;;5096168;27;45415;-70
2022/10/07 12:01:29;;;;;;;;;3.00;2.00;;;;;;;;5095951;27;47180;-71
2022/10/07 12:04:21;;;;;;;;;4.00;2.33;;;;;;;;5091310;27;45424;-71
2022/10/07 12:07:05;;;;;;;;;4.33;2.00;;;;;;;;5092175;27;45461;-71
2022/10/07 12:09:53;;;;;;;;;3.00;3.00;;;;;;;;5089592;27;45456;-72
2022/10/07 12:12:21;;;;;;;;;4.67;2.33;;;;;;;;5060176;28;45477;-71
2022/10/07 12:14:57;;;;;;;;;2.33;1.00;;;;;;;;5086623;27;46381;-71
2022/10/07 12:17:24;;;;;;;;;3.00;2.00;;;;;;;;5092390;27;45285;-71
2022/10/07 12:20:09;;;;;;;;;2.33;1.67;;;;;;;;5086215;27;45315;-71
2022/10/07 12:22:34;;;;;;;;;2.33;2.33;;;;;;;;5069407;27;45422;-71
2022/10/07 12:25:22;;;;;;;;;3.33;2.00;;;;;;;;5091994;27;46229;-71
2022/10/07 12:27:50;;;;;;;;;4.00;3.00;;;;;;;;5092231;27;45463;-71
2022/10/07 12:30:36;;;;;;;;;4.00;2.00;;;;;;;;5087875;27;45879;-71
2022/10/07 12:33:13;;;;;;;;;3.67;2.33;;;;;;;;5087124;27;45267;-71
2022/10/07 12:35:40;;;;;;;;;1.33;1.33;;;;;;;;5085118;27;46250;-71
2022/10/07 12:38:13;;;;;;;;;3.67;3.00;;;;;;;;5081946;27;45453;-71
2022/10/07 12:40:39;;;;;;;;;2.00;2.00;;;;;;;;5091937;27;45309;-71
2022/10/07 12:43:09;;;;;;;;;3.67;3.67;;;;;;;;5092059;27;45505;-71
2022/10/07 12:45:37;;;;;;;;;4.00;2.67;;;;;;;;5092033;27;45725;-71
2022/10/07 12:48:03;;;;;;;;;6.00;3.00;;;;;;;;5091254;27;45378;-71
2022/10/07 12:50:31;;;;;;;;;4.00;3.00;;;;;;;;5091901;27;45515;-71
2022/10/07 12:52:59;;;;;;;;;2.33;2.33;;;;;;;;5091788;27;45367;-71
2022/10/07 12:55:35;;;;;;;;;2.00;2.00;;;;;;;;5091646;27;46200;-71
2022/10/07 13:01:03;;;;;;;;;3.00;2.00;;;;;;;;5091719;27;45307;-71
2022/10/07 13:03:28;;;;;;;;;2.33;2.33;;;;;;;;5090165;27;45411;-71
2022/10/07 13:06:22;;;;;;;;;3.67;1.67;;;;;;;;5091428;27;46297;-71
2022/10/07 13:09:06;;;;;;;;;5.00;2.33;;;;;;;;5090741;27;45370;-71
2022/10/07 13:11:48;;;;;;;;;3.67;3.00;;;;;;;;5085699;27;45340;-72
2022/10/07 13:14:25;;;;;;;;;4.67;3.00;;;;;;;;5084643;27;45501;-71
2022/10/07 13:16:58;;;;;;;;;3.00;2.00;;;;;;;;5077187;27;47065;-71
2022/10/07 13:19:31;;;;;;;;;2.67;2.00;;;;;;;;5072899;27;45311;-69
2022/10/07 13:22:08;;;;;;;;;3.00;3.00;;;;;;;;5077619;27;45279;-70
2022/10/07 13:24:34;;;;;;;;;6.33;2.67;;;;;;;;5077744;27;45295;-71
2022/10/07 13:26:59;;;;;;;;;2.67;2.67;;;;;;;;5069823;27;47002;-71
2022/10/07 13:29:26;;;;;;;;;2.00;2.00;;;;;;;;5077475;28;45417;-70
2022/10/07 13:32:10;;;;;;;;;1.67;1.67;;;;;;;;5077340;27;45438;-71
2022/10/07 13:34:36;;;;;;;;;4.67;3.00;;;;;;;;5053489;28;45437;-70
2022/10/07 13:37:01;;;;;;;;;2.00;2.00;;;;;;;;5066155;27;46102;-71
2022/10/07 13:39:29;;;;;;;;;1.00;1.00;;;;;;;;5077656;27;45306;-71
2022/10/07 13:41:55;;;;;;;;;2.00;2.00;;;;;;;;5072403;27;45364;-71
2022/10/07 13:44:23;;;;;;;;;2.33;2.33;;;;;;;;5062780;27;45556;-70
2022/10/07 13:47:05;;;;;;;;;3.67;2.67;;;;;;;;5042962;28;46053;-69
2022/10/07 13:49:39;;;;;;;;;3.00;3.00;;;;;;;;5056869;28;45340;-70
2022/10/07 13:52:12;;;;;;;;;2.00;2.00;;;;;;;;5056782;28;45467;-71
2022/10/07 13:54:37;;;;;;;;;1.00;1.00;;;;;;;;5056727;28;45449;-71
2022/10/07 13:57:03;;;;;;;;;4.00;1.67;;;;;;;;5056723;28;46081;-70
2022/10/07 13:59:35;;;;;;;;;2.33;2.33;;;;;;;;5056539;28;45323;-70
2022/10/07 14:02:00;;;;;;;;;3.33;2.33;;;;;;;;5055706;28;45479;-70
2022/10/07 14:04:25;;;;;;;;;6.00;3.00;;;;;;;;5056675;28;45597;-70
2022/10/07 14:06:54;;;;;;;;;2.00;2.00;;;;;;;;5058827;28;46220;-69
2022/10/07 14:09:31;;;;;;;;;2.00;2.00;;;;;;;;5056431;28;45301;-71
2022/10/07 14:11:59;;;;;;;;;2.67;1.33;;;;;;;;5056242;28;45302;-71
2022/10/07 14:14:31;;;;;;;;;0.67;0.67;;;;;;;;5056374;28;45605;-71
2022/10/07 14:16:58;;;;;;;;;2.33;2.00;;;;;;;;5056163;28;46929;-71
2022/10/07 14:19:24;;;;;;;;;0.67;0.67;;;;;;;;5064263;28;45398;-70
2022/10/07 14:21:49;;;;;;;;;3.33;2.00;;;;;;;;5061302;27;45429;-71
2022/10/07 14:24:19;;;;;;;;;4.00;2.00;;;;;;;;5056467;28;45463;-71
2022/10/07 14:26:44;;;;;;;;;3.33;1.00;;;;;;;;5055177;28;46324;-70
2022/10/07 14:29:27;;;;;;;;;4.00;2.33;;;;;;;;5055662;28;45419;-71
2022/10/07 14:35:19;;;;;;;;;3.67;2.00;;;;;;;;5056672;28;45342;-71
2022/10/07 14:37:45;;;;;;;;;6.00;2.00;;;;;;;;5056084;28;45403;-70
2022/10/07 14:40:22;;;;;;;;;2.00;1.00;;;;;;;;5055266;28;45376;-70
2022/10/07 14:42:48;;;;;;;;;1.33;1.33;;;;;;;;5058261;28;45394;-72
2022/10/07 14:45:15;;;;;;;;;2.00;1.00;;;;;;;;5076118;27;45239;-70
2022/10/07 14:47:43;;;;;;;;;1.67;1.00;;;;;;;;5062325;28;46247;-70
2022/10/07 14:50:08;;;;;;;;;1.33;1.00;;;;;;;;5048281;28;45339;-69
2022/10/07 14:52:38;;;;;;;;;3.00;2.00;;;;;;;;5065120;27;45872;-69
2022/10/07 14:55:06;;;;;;;;;3.00;0.67;;;;;;;;5075003;28;45295;-70
2022/10/07 14:57:32;;;;;;;;;1.00;0.33;;;;;;;;5076206;27;46381;-73
2022/10/07 14:59:57;;;;;;;;;2.67;1.33;;;;;;;;5075726;27;45412;-71
2022/10/07 15:02:22;;;;;;;;;2.00;2.00;;;;;;;;5076669;27;45331;-72
2022/10/07 15:04:48;;;;;;;;;1.67;1.00;;;;;;;;5073173;27;45288;-72